Time;durP1;ratioP1;P1;durP2;ratioP2;P2;SDS_P1;SDS_P2;PMS_P1;PMS_P2;Temp;Humidity;BMP_temperature;BMP_pressure;BME280_temperature;BME280_humidity;BME280_pressure;Samples;Min_cycle;Max_cycle;Signal;HPM_P1;HPM_P2
2023/03/14 00:00:46;;;;;;;8.20;5.10;;;;;;;;;;4992308;28;20022;-81
2023/03/14 00:03:12;;;;;;;12.35;6.63;;;;;;;;;;4993066;28;20030;-80
2023/03/14 00:05:37;;;;;;;9.23;5.55;;;;;;;;;;4994038;28;20121;-80
2023/03/14 00:08:03;;;;;;;11.07;5.72;;;;;;;;;;4992237;28;20034;-80
2023/03/14 00:10:28;;;;;;;9.00;4.93;;;;;;;;;;4993168;28;20427;-80
2023/03/14 00:12:55;;;;;;;7.35;5.00;;;;;;;;;;4992310;28;20026;-81
2023/03/14 00:15:20;;;;;;;12.48;5.30;;;;;;;;;;4993388;28;20031;-80
2023/03/14 00:17:46;;;;;;;13.50;5.90;;;;;;;;;;4997768;28;20340;-80
2023/03/14 00:20:12;;;;;;;9.48;5.15;;;;;;;;;;4996109;28;20077;-80
2023/03/14 00:22:38;;;;;;;10.18;5.55;;;;;;;;;;4996811;28;20181;-80
2023/03/14 00:25:06;;;;;;;10.02;4.97;;;;;;;;;;4996713;28;20062;-80
2023/03/14 00:27:31;;;;;;;8.02;4.78;;;;;;;;;;4996851;28;20056;-80
2023/03/14 00:29:57;;;;;;;10.73;5.38;;;;;;;;;;4996967;28;20034;-80
2023/03/14 00:32:23;;;;;;;9.18;4.93;;;;;;;;;;4998466;28;20022;-81
2023/03/14 00:34:49;;;;;;;9.23;5.72;;;;;;;;;;4996873;28;20092;-80
2023/03/14 00:37:14;;;;;;;8.75;4.85;;;;;;;;;;4995289;28;20034;-80
2023/03/14 00:39:40;;;;;;;11.55;5.40;;;;;;;;;;5005924;28;20037;-79
2023/03/14 00:42:05;;;;;;;10.07;5.53;;;;;;;;;;5014640;28;20065;-80
2023/03/14 00:44:31;;;;;;;10.70;4.38;;;;;;;;;;5016647;28;20026;-80
2023/03/14 00:46:57;;;;;;;11.35;4.97;;;;;;;;;;5015910;28;20033;-79
2023/03/14 00:49:23;;;;;;;9.18;4.45;;;;;;;;;;5014295;28;20038;-80
2023/03/14 00:51:49;;;;;;;14.05;5.05;;;;;;;;;;5017555;28;20026;-80
2023/03/14 00:54:14;;;;;;;14.48;5.65;;;;;;;;;;5014872;28;20060;-80
2023/03/14 00:56:40;;;;;;;13.77;6.65;;;;;;;;;;5014189;28;20065;-79
2023/03/14 00:59:06;;;;;;;12.52;6.20;;;;;;;;;;5015032;28;20061;-78
2023/03/14 01:01:32;;;;;;;10.52;5.75;;;;;;;;;;5015209;28;20037;-80
2023/03/14 01:03:58;;;;;;;7.03;4.80;;;;;;;;;;5014600;28;20098;-80
2023/03/14 01:06:26;;;;;;;11.88;5.32;;;;;;;;;;5014072;28;20133;-79
2023/03/14 01:08:52;;;;;;;10.85;5.05;;;;;;;;;;5016308;28;20186;-79
2023/03/14 01:11:25;;;;;;;10.65;5.18;;;;;;;;;;5016464;28;20064;-79
2023/03/14 01:13:51;;;;;;;7.22;4.43;;;;;;;;;;5014983;28;20514;-80
2023/03/14 01:16:18;;;;;;;11.77;4.40;;;;;;;;;;5014962;28;20064;-79
2023/03/14 01:18:45;;;;;;;9.93;4.50;;;;;;;;;;5013821;28;20042;-79
2023/03/14 01:21:14;;;;;;;6.07;3.20;;;;;;;;;;5013449;28;20060;-79
2023/03/14 01:23:40;;;;;;;12.27;4.57;;;;;;;;;;5014945;28;20453;-80
2023/03/14 01:26:10;;;;;;;7.22;3.95;;;;;;;;;;5013900;28;20033;-79
2023/03/14 01:28:36;;;;;;;8.43;3.88;;;;;;;;;;5013720;28;20032;-79
2023/03/14 01:31:07;;;;;;;6.72;3.83;;;;;;;;;;5014417;28;20116;-79
2023/03/14 01:33:33;;;;;;;5.32;3.70;;;;;;;;;;5015447;28;20032;-79
2023/03/14 01:36:01;;;;;;;9.18;3.80;;;;;;;;;;5015262;28;20026;-80
2023/03/14 01:38:30;;;;;;;7.10;4.10;;;;;;;;;;5015253;28;20018;-79
2023/03/14 01:40:57;;;;;;;5.60;3.70;;;;;;;;;;5013758;28;20046;-80
2023/03/14 01:43:27;;;;;;;11.23;3.78;;;;;;;;;;5014141;28;20026;-79
2023/03/14 01:46:05;;;;;;;8.95;4.78;;;;;;;;;;5013605;28;20041;-80
2023/03/14 01:48:54;;;;;;;10.15;5.00;;;;;;;;;;5013068;28;20025;-79
2023/03/14 01:51:38;;;;;;;7.38;4.10;;;;;;;;;;5005931;28;20045;-79
2023/03/14 01:54:35;;;;;;;9.68;4.28;;;;;;;;;;5013864;28;20100;-79
2023/03/14 01:57:07;;;;;;;11.02;6.18;;;;;;;;;;5014750;28;20088;-80
2023/03/14 01:59:34;;;;;;;9.57;4.50;;;;;;;;;;5012895;28;20026;-80
2023/03/14 02:02:00;;;;;;;9.52;4.70;;;;;;;;;;5013026;28;20462;-80
2023/03/14 02:04:31;;;;;;;9.65;4.45;;;;;;;;;;5014385;28;20058;-80
2023/03/14 02:07:03;;;;;;;8.48;4.38;;;;;;;;;;5015451;28;20085;-79
2023/03/14 02:09:30;;;;;;;8.82;4.47;;;;;;;;;;5012971;28;20076;-80
2023/03/14 02:11:55;;;;;;;8.98;5.18;;;;;;;;;;5014311;28;20030;-79
2023/03/14 02:14:33;;;;;;;7.55;4.15;;;;;;;;;;5014411;28;20028;-79
2023/03/14 02:17:01;;;;;;;7.38;4.22;;;;;;;;;;5013338;28;20009;-79
2023/03/14 02:19:43;;;;;;;11.32;5.03;;;;;;;;;;5014384;28;20034;-80
2023/03/14 02:22:12;;;;;;;8.93;4.50;;;;;;;;;;5014876;28;20061;-80
2023/03/14 02:24:50;;;;;;;9.05;4.53;;;;;;;;;;5013412;28;20444;-80
2023/03/14 02:27:18;;;;;;;7.35;3.90;;;;;;;;;;5012928;28;20028;-79
2023/03/14 02:29:58;;;;;;;9.13;4.43;;;;;;;;;;5012516;28;20303;-79
2023/03/14 02:32:27;;;;;;;7.75;4.03;;;;;;;;;;5012478;28;20021;-79
2023/03/14 02:34:56;;;;;;;9.15;4.68;;;;;;;;;;5012847;28;20017;-81
2023/03/14 02:37:26;;;;;;;6.05;3.88;;;;;;;;;;5012087;28;20045;-80
2023/03/14 02:39:52;;;;;;;9.75;4.68;;;;;;;;;;5011319;28;20111;-80
2023/03/14 02:42:18;;;;;;;8.02;4.13;;;;;;;;;;5012934;28;20057;-79
2023/03/14 02:45:01;;;;;;;7.78;4.20;;;;;;;;;;5013534;28;20044;-80
2023/03/14 02:47:29;;;;;;;9.45;4.68;;;;;;;;;;5011560;28;20034;-79
2023/03/14 02:50:06;;;;;;;8.82;4.53;;;;;;;;;;5011800;28;20033;-80
2023/03/14 02:52:33;;;;;;;10.27;4.57;;;;;;;;;;4997059;28;20030;-80
2023/03/14 02:54:59;;;;;;;8.75;4.50;;;;;;;;;;4996323;28;20029;-80
2023/03/14 02:57:26;;;;;;;8.65;4.20;;;;;;;;;;5012954;28;20054;-79
2023/03/14 02:59:51;;;;;;;5.28;3.50;;;;;;;;;;5012594;28;20026;-81
2023/03/14 03:02:17;;;;;;;11.18;4.88;;;;;;;;;;5013350;28;20466;-81
2023/03/14 03:04:42;;;;;;;7.05;4.18;;;;;;;;;;5011746;28;20470;-81
2023/03/14 03:07:08;;;;;;;7.68;4.85;;;;;;;;;;5012381;28;20075;-81
2023/03/14 03:09:34;;;;;;;8.40;4.85;;;;;;;;;;5011902;28;20060;-80
2023/03/14 03:11:59;;;;;;;8.68;4.65;;;;;;;;;;5014432;28;20030;-80
2023/03/14 03:14:25;;;;;;;9.10;4.68;;;;;;;;;;5013988;28;20117;-80
2023/03/14 03:16:50;;;;;;;9.30;5.72;;;;;;;;;;5014263;28;20436;-80
2023/03/14 03:19:17;;;;;;;9.70;4.45;;;;;;;;;;5013042;28;20075;-80
2023/03/14 03:21:43;;;;;;;8.10;4.53;;;;;;;;;;5012364;28;20053;-80
2023/03/14 03:24:09;;;;;;;7.15;4.72;;;;;;;;;;5014265;28;20116;-80
2023/03/14 03:26:36;;;;;;;10.20;4.82;;;;;;;;;;5012130;28;20030;-79
2023/03/14 03:29:02;;;;;;;9.38;5.03;;;;;;;;;;5011565;28;20488;-79
2023/03/14 03:31:27;;;;;;;7.53;4.47;;;;;;;;;;5011441;28;20036;-80
2023/03/14 03:33:53;;;;;;;7.80;4.78;;;;;;;;;;5013292;28;20088;-80
2023/03/14 03:36:23;;;;;;;6.95;4.60;;;;;;;;;;5011449;28;20049;-79
2023/03/14 03:38:48;;;;;;;10.02;5.35;;;;;;;;;;5013024;28;20017;-79
2023/03/14 03:41:14;;;;;;;11.43;5.18;;;;;;;;;;5011040;28;20053;-79
2023/03/14 03:43:40;;;;;;;7.88;5.38;;;;;;;;;;5011337;28;20096;-79
2023/03/14 03:46:06;;;;;;;9.30;5.03;;;;;;;;;;5011621;28;20117;-79
2023/03/14 03:48:32;;;;;;;10.77;5.32;;;;;;;;;;5010297;28;20357;-79
2023/03/14 03:50:57;;;;;;;7.28;5.05;;;;;;;;;;5015302;28;20385;-79
2023/03/14 03:53:23;;;;;;;10.20;5.38;;;;;;;;;;5016152;28;20033;-79
2023/03/14 03:55:48;;;;;;;7.78;4.95;;;;;;;;;;5018821;28;20034;-80
2023/03/14 03:58:14;;;;;;;5.70;3.95;;;;;;;;;;5017650;28;20423;-79
2023/03/14 04:00:40;;;;;;;6.35;3.25;;;;;;;;;;5015489;28;20128;-79
2023/03/14 04:03:05;;;;;;;6.03;3.53;;;;;;;;;;5016148;28;20036;-80
2023/03/14 04:05:31;;;;;;;7.47;3.90;;;;;;;;;;5014778;28;20076;-80
2023/03/14 04:07:56;;;;;;;6.95;4.07;;;;;;;;;;5014430;28;20082;-81
2023/03/14 04:10:22;;;;;;;8.60;4.32;;;;;;;;;;5014368;28;20132;-79
2023/03/14 04:12:47;;;;;;;7.72;3.80;;;;;;;;;;5015599;28;20340;-80
2023/03/14 04:15:13;;;;;;;5.60;3.17;;;;;;;;;;5016004;28;20049;-79
2023/03/14 04:17:38;;;;;;;9.10;4.38;;;;;;;;;;5014418;28;20038;-80
2023/03/14 04:20:04;;;;;;;5.63;3.30;;;;;;;;;;5016747;28;20030;-80
2023/03/14 04:22:30;;;;;;;7.03;3.08;;;;;;;;;;5016460;28;20021;-79
2023/03/14 04:24:57;;;;;;;6.35;3.83;;;;;;;;;;5015149;28;20029;-80
2023/03/14 04:27:23;;;;;;;8.98;4.45;;;;;;;;;;5015000;28;20074;-80
2023/03/14 04:29:48;;;;;;;9.13;4.30;;;;;;;;;;5015859;28;20415;-81
2023/03/14 04:32:13;;;;;;;7.70;3.53;;;;;;;;;;5015219;28;20037;-81
2023/03/14 04:34:39;;;;;;;7.22;3.70;;;;;;;;;;5016167;28;20048;-81
2023/03/14 04:37:04;;;;;;;7.22;3.30;;;;;;;;;;5015138;28;20042;-80
2023/03/14 04:39:30;;;;;;;6.57;3.85;;;;;;;;;;5015042;28;20340;-80
2023/03/14 04:41:56;;;;;;;4.15;2.65;;;;;;;;;;5015061;28;20436;-81
2023/03/14 04:44:21;;;;;;;4.65;1.52;;;;;;;;;;5014868;28;20037;-80
2023/03/14 04:46:47;;;;;;;2.83;1.50;;;;;;;;;;5013204;28;20041;-80
2023/03/14 04:49:12;;;;;;;5.10;1.90;;;;;;;;;;5015321;28;20065;-80
2023/03/14 04:51:38;;;;;;;2.75;1.00;;;;;;;;;;5014146;28;20555;-80
2023/03/14 04:54:04;;;;;;;4.78;1.30;;;;;;;;;;5014728;28;20455;-81
2023/03/14 04:56:29;;;;;;;3.95;0.98;;;;;;;;;;5015769;28;20058;-80
2023/03/14 04:58:55;;;;;;;1.30;0.73;;;;;;;;;;5013830;28;20386;-80
2023/03/14 05:01:20;;;;;;;0.50;0.38;;;;;;;;;;5015697;28;20102;-80
2023/03/14 05:03:46;;;;;;;1.05;0.68;;;;;;;;;;5015291;28;20022;-80
2023/03/14 05:06:12;;;;;;;1.63;0.70;;;;;;;;;;5015309;28;20045;-80
2023/03/14 05:08:37;;;;;;;0.60;0.50;;;;;;;;;;4998231;28;20112;-80
2023/03/14 05:11:03;;;;;;;0.98;0.50;;;;;;;;;;5015050;28;20026;-80
2023/03/14 05:13:28;;;;;;;0.45;0.30;;;;;;;;;;5013660;28;20107;-80
2023/03/14 05:16:04;;;;;;;0.93;0.70;;;;;;;;;;5015193;28;20032;-81
2023/03/14 05:18:29;;;;;;;0.68;0.50;;;;;;;;;;5015564;28;20056;-80
2023/03/14 05:20:55;;;;;;;3.25;0.30;;;;;;;;;;5013187;28;20501;-79
2023/03/14 05:23:20;;;;;;;2.60;0.77;;;;;;;;;;5014227;28;20458;-80
2023/03/14 05:25:46;;;;;;;0.63;0.40;;;;;;;;;;5018804;28;20101;-81
2023/03/14 05:28:11;;;;;;;2.95;0.73;;;;;;;;;;5013392;28;20087;-81
2023/03/14 05:30:37;;;;;;;0.30;0.30;;;;;;;;;;5013935;28;20439;-81
2023/03/14 05:33:02;;;;;;;0.70;0.57;;;;;;;;;;5013959;28;20030;-81
2023/03/14 05:35:29;;;;;;;0.65;0.45;;;;;;;;;;5014324;28;20030;-80
2023/03/14 05:37:54;;;;;;;1.88;0.63;;;;;;;;;;5013420;28;20044;-81
2023/03/14 05:40:20;;;;;;;3.78;0.70;;;;;;;;;;5012734;28;20030;-80
2023/03/14 05:42:45;;;;;;;1.27;0.60;;;;;;;;;;5014777;28;20481;-81
2023/03/14 05:45:11;;;;;;;1.35;0.60;;;;;;;;;;5015226;28;20029;-81
2023/03/14 05:47:37;;;;;;;3.67;0.70;;;;;;;;;;5012538;28;20053;-80
2023/03/14 05:50:02;;;;;;;0.93;0.50;;;;;;;;;;5013872;28;20320;-80
2023/03/14 05:52:28;;;;;;;1.52;0.77;;;;;;;;;;5013314;28;20030;-80
2023/03/14 05:54:53;;;;;;;0.57;0.57;;;;;;;;;;5014069;28;20025;-81
2023/03/14 05:57:19;;;;;;;3.05;2.10;;;;;;;;;;5013355;28;20048;-79
2023/03/14 05:59:44;;;;;;;1.52;1.00;;;;;;;;;;5015817;28;20061;-80
2023/03/14 06:02:10;;;;;;;0.85;0.80;;;;;;;;;;5013535;28;20026;-81
2023/03/14 06:04:35;;;;;;;0.50;0.50;;;;;;;;;;5012604;28;20389;-81
2023/03/14 06:07:01;;;;;;;1.42;0.60;;;;;;;;;;5013947;28;20033;-81
2023/03/14 06:09:27;;;;;;;2.65;1.08;;;;;;;;;;5013801;28;20045;-81
2023/03/14 06:11:52;;;;;;;2.50;0.82;;;;;;;;;;5013492;28;20029;-82
2023/03/14 06:14:18;;;;;;;1.05;0.65;;;;;;;;;;5016356;28;20030;-80
2023/03/14 06:16:44;;;;;;;0.70;0.47;;;;;;;;;;5020409;28;20171;-80
2023/03/14 06:19:10;;;;;;;1.67;0.40;;;;;;;;;;5007523;28;20036;-80
2023/03/14 06:21:35;;;;;;;0.47;0.28;;;;;;;;;;5014661;28;20120;-81
2023/03/14 06:24:01;;;;;;;0.73;0.50;;;;;;;;;;5010359;28;20426;-81
2023/03/14 06:26:28;;;;;;;1.25;0.80;;;;;;;;;;5013014;28;20029;-81
2023/03/14 06:28:54;;;;;;;0.73;0.20;;;;;;;;;;5013013;28;20044;-81
2023/03/14 06:31:20;;;;;;;0.75;0.40;;;;;;;;;;5014022;28;20121;-82
2023/03/14 06:33:46;;;;;;;1.60;0.60;;;;;;;;;;5013899;28;20095;-81
2023/03/14 06:36:11;;;;;;;0.65;0.60;;;;;;;;;;5013131;28;20029;-81
2023/03/14 06:38:37;;;;;;;0.47;0.40;;;;;;;;;;5011668;28;20118;-82
2023/03/14 06:41:04;;;;;;;0.73;0.47;;;;;;;;;;5006172;28;20498;-81
2023/03/14 06:43:31;;;;;;;1.05;0.55;;;;;;;;;;5013675;28;20116;-81
2023/03/14 06:45:57;;;;;;;1.77;0.47;;;;;;;;;;5010349;28;20014;-83
2023/03/14 06:48:24;;;;;;;1.27;0.45;;;;;;;;;;5003588;28;20036;-81
2023/03/14 06:50:49;;;;;;;0.65;0.50;;;;;;;;;;5012310;28;20030;-81
2023/03/14 06:53:15;;;;;;;1.52;0.80;;;;;;;;;;5011104;28;20029;-81
2023/03/14 06:55:40;;;;;;;1.98;0.70;;;;;;;;;;5017503;28;20096;-81
2023/03/14 06:58:12;;;;;;;1.42;0.57;;;;;;;;;;5006532;28;20021;-80
2023/03/14 07:00:38;;;;;;;0.50;0.50;;;;;;;;;;5005635;28;20036;-80
2023/03/14 07:03:04;;;;;;;1.27;0.70;;;;;;;;;;5008968;28;20026;-82
2023/03/14 07:05:32;;;;;;;1.77;0.50;;;;;;;;;;5006710;28;20038;-81
2023/03/14 07:07:58;;;;;;;0.47;0.43;;;;;;;;;;5008054;28;20084;-80
2023/03/14 07:10:25;;;;;;;0.43;0.40;;;;;;;;;;5007850;28;20437;-80
2023/03/14 07:12:53;;;;;;;1.80;0.90;;;;;;;;;;5005394;28;20021;-82
2023/03/14 07:15:19;;;;;;;0.95;0.60;;;;;;;;;;5007142;28;20052;-81
2023/03/14 07:17:47;;;;;;;3.00;1.02;;;;;;;;;;5008601;28;20018;-80
2023/03/14 07:20:15;;;;;;;2.90;2.00;;;;;;;;;;5009537;28;20045;-80
2023/03/14 07:22:40;;;;;;;0.55;0.50;;;;;;;;;;5008083;28;20786;-81
2023/03/14 07:25:09;;;;;;;0.45;0.45;;;;;;;;;;5008158;28;20080;-82
2023/03/14 07:27:35;;;;;;;0.68;0.35;;;;;;;;;;5008927;28;20120;-83
2023/03/14 07:30:01;;;;;;;0.60;0.40;;;;;;;;;;5010719;28;20053;-83
2023/03/14 07:32:27;;;;;;;0.70;0.40;;;;;;;;;;5013282;28;20026;-84
2023/03/14 07:34:52;;;;;;;1.38;0.50;;;;;;;;;;5007894;28;20117;-81
2023/03/14 07:37:18;;;;;;;0.30;0.22;;;;;;;;;;5009721;28;20506;-82
2023/03/14 07:39:44;;;;;;;2.67;0.75;;;;;;;;;;5003503;28;20022;-82
2023/03/14 07:42:10;;;;;;;2.33;0.80;;;;;;;;;;4996132;28;20127;-83
2023/03/14 07:44:40;;;;;;;1.23;0.40;;;;;;;;;;5009873;28;20037;-82
2023/03/14 07:47:08;;;;;;;0.68;0.50;;;;;;;;;;5013588;28;20033;-85
2023/03/14 07:49:33;;;;;;;1.20;0.70;;;;;;;;;;5008133;28;20109;-83
2023/03/14 07:52:01;;;;;;;6.18;0.95;;;;;;;;;;5008966;28;20030;-82
2023/03/14 07:54:27;;;;;;;0.68;0.40;;;;;;;;;;5010316;28;20042;-82
2023/03/14 07:56:53;;;;;;;1.75;0.60;;;;;;;;;;5009510;28;20097;-82
2023/03/14 07:59:19;;;;;;;7.80;0.70;;;;;;;;;;5009942;28;20077;-81
2023/03/14 08:01:45;;;;;;;3.65;1.35;;;;;;;;;;5009429;28;20017;-82
2023/03/14 08:04:11;;;;;;;5.22;0.45;;;;;;;;;;5009923;28;20091;-80
2023/03/14 08:06:37;;;;;;;0.60;0.30;;;;;;;;;;5009169;28;20070;-81
2023/03/14 08:09:04;;;;;;;1.58;0.50;;;;;;;;;;5022666;28;20131;-83
2023/03/14 08:11:30;;;;;;;2.72;0.90;;;;;;;;;;5009035;28;20045;-82
2023/03/14 08:13:55;;;;;;;0.57;0.35;;;;;;;;;;5024361;28;20022;-81
2023/03/14 08:16:22;;;;;;;2.10;0.55;;;;;;;;;;5003285;28;20088;-82
2023/03/14 08:18:56;;;;;;;0.30;0.30;;;;;;;;;;5008021;28;20038;-84
2023/03/14 08:21:22;;;;;;;0.93;0.45;;;;;;;;;;5005234;28;20097;-82
2023/03/14 08:23:48;;;;;;;5.68;0.65;;;;;;;;;;5001574;28;20034;-83
2023/03/14 08:26:14;;;;;;;5.03;0.80;;;;;;;;;;5002636;28;20363;-81
2023/03/14 08:28:39;;;;;;;0.80;0.50;;;;;;;;;;5003395;28;20113;-81
2023/03/14 08:31:05;;;;;;;3.30;0.50;;;;;;;;;;5008793;28;20034;-84
2023/03/14 08:33:31;;;;;;;2.42;0.43;;;;;;;;;;5006790;28;20036;-81
2023/03/14 08:35:59;;;;;;;3.83;0.40;;;;;;;;;;4998828;28;20360;-81
2023/03/14 08:38:25;;;;;;;0.77;0.30;;;;;;;;;;5008634;28;20033;-82
2023/03/14 08:40:59;;;;;;;1.13;0.57;;;;;;;;;;5011353;28;20048;-81
2023/03/14 08:43:26;;;;;;;5.72;0.60;;;;;;;;;;5009354;28;20665;-82
2023/03/14 08:45:52;;;;;;;3.55;0.45;;;;;;;;;;5021179;28;20030;-82
2023/03/14 08:48:19;;;;;;;6.80;0.77;;;;;;;;;;5013060;28;20117;-81
2023/03/14 08:50:46;;;;;;;0.40;0.22;;;;;;;;;;5020930;28;20294;-79
2023/03/14 08:53:11;;;;;;;7.00;0.60;;;;;;;;;;5009009;28;20116;-81
2023/03/14 08:55:37;;;;;;;12.05;1.00;;;;;;;;;;5004531;28;20034;-82
2023/03/14 08:58:03;;;;;;;2.35;0.40;;;;;;;;;;5003794;28;20037;-81
2023/03/14 09:00:29;;;;;;;4.22;0.85;;;;;;;;;;5001283;28;20040;-82
2023/03/14 09:02:55;;;;;;;1.92;1.00;;;;;;;;;;5008849;28;20081;-82
2023/03/14 09:05:21;;;;;;;2.97;0.50;;;;;;;;;;5007676;28;20076;-82
2023/03/14 09:07:48;;;;;;;1.40;0.50;;;;;;;;;;5004369;28;20102;-82
2023/03/14 09:10:14;;;;;;;2.22;1.40;;;;;;;;;;5008663;28;20141;-82
2023/03/14 09:12:40;;;;;;;1.58;1.00;;;;;;;;;;5009112;28;20322;-81
2023/03/14 09:15:07;;;;;;;2.65;0.60;;;;;;;;;;5008639;28;20144;-81
2023/03/14 09:17:32;;;;;;;2.55;0.55;;;;;;;;;;5012420;28;20133;-83
2023/03/14 09:19:58;;;;;;;1.75;0.57;;;;;;;;;;5022998;28;20125;-82
2023/03/14 09:22:25;;;;;;;19.75;2.63;;;;;;;;;;5007812;28;20537;-82
2023/03/14 09:24:51;;;;;;;1.73;0.50;;;;;;;;;;5008549;28;20034;-81
2023/03/14 09:27:17;;;;;;;8.50;1.10;;;;;;;;;;5006949;28;20056;-80
2023/03/14 09:29:44;;;;;;;1.95;0.50;;;;;;;;;;5007722;28;20078;-82
2023/03/14 09:32:11;;;;;;;0.75;0.47;;;;;;;;;;5008999;28;20494;-83
2023/03/14 09:34:37;;;;;;;5.63;0.80;;;;;;;;;;5008953;28;20030;-82
2023/03/14 09:37:03;;;;;;;8.15;1.35;;;;;;;;;;5008259;28;20459;-82
2023/03/14 09:39:29;;;;;;;3.55;0.68;;;;;;;;;;5023446;28;20029;-82
2023/03/14 09:42:03;;;;;;;2.08;0.52;;;;;;;;;;5004636;28;20037;-82
2023/03/14 09:44:39;;;;;;;4.68;0.82;;;;;;;;;;5004122;28;20049;-84
2023/03/14 09:47:12;;;;;;;2.78;0.70;;;;;;;;;;5006417;28;20037;-81
2023/03/14 09:49:42;;;;;;;3.78;1.20;;;;;;;;;;5003871;28;20030;-82
2023/03/14 09:52:30;;;;;;;2.40;0.55;;;;;;;;;;5006599;28;20371;-83
2023/03/14 09:55:04;;;;;;;3.38;0.40;;;;;;;;;;4990199;28;20068;-80
2023/03/14 09:57:35;;;;;;;2.42;0.65;;;;;;;;;;5007057;28;20367;-81
2023/03/14 10:00:15;;;;;;;2.03;0.68;;;;;;;;;;5005339;28;20060;-83
2023/03/14 10:03:13;;;;;;;4.00;0.47;;;;;;;;;;5004074;28;20034;-82
2023/03/14 10:05:41;;;;;;;2.03;0.55;;;;;;;;;;5022466;28;20037;-82
2023/03/14 10:08:11;;;;;;;0.90;0.55;;;;;;;;;;4994923;28;20022;-81
2023/03/14 10:10:37;;;;;;;3.63;0.50;;;;;;;;;;5011429;28;20006;-82
2023/03/14 10:13:19;;;;;;;2.38;1.10;;;;;;;;;;5003813;28;20117;-82
2023/03/14 10:16:00;;;;;;;1.38;0.52;;;;;;;;;;5009087;28;20025;-81
2023/03/14 10:18:29;;;;;;;4.78;0.95;;;;;;;;;;5008066;28;20040;-82
2023/03/14 10:21:06;;;;;;;3.00;0.73;;;;;;;;;;5009711;28;20052;-81
2023/03/14 10:23:33;;;;;;;15.00;1.88;;;;;;;;;;5005024;28;20018;-81
2023/03/14 10:26:33;;;;;;;3.70;0.77;;;;;;;;;;5008781;28;20342;-81
2023/03/14 10:29:12;;;;;;;2.47;1.33;;;;;;;;;;5022489;28;20041;-82
2023/03/14 10:32:02;;;;;;;3.88;1.42;;;;;;;;;;4994346;28;20045;-83
2023/03/14 10:34:36;;;;;;;0.63;0.40;;;;;;;;;;5012772;28;20092;-82
2023/03/14 10:37:13;;;;;;;3.17;0.80;;;;;;;;;;5012635;28;21356;-81
2023/03/14 10:39:43;;;;;;;1.08;0.60;;;;;;;;;;5008952;28;20093;-82
2023/03/14 10:42:19;;;;;;;2.22;0.85;;;;;;;;;;5010402;28;20326;-83
2023/03/14 10:44:46;;;;;;;1.05;0.60;;;;;;;;;;5015274;28;20097;-84
2023/03/14 10:47:23;;;;;;;3.40;0.52;;;;;;;;;;4999979;28;20031;-82
2023/03/14 10:49:49;;;;;;;0.95;0.47;;;;;;;;;;4999192;28;20038;-84
2023/03/14 10:52:19;;;;;;;0.98;0.40;;;;;;;;;;5017927;28;20036;-85
2023/03/14 10:54:48;;;;;;;2.15;0.40;;;;;;;;;;5015857;28;20113;-84
2023/03/14 10:57:15;;;;;;;2.67;0.85;;;;;;;;;;4992908;28;20037;-83
2023/03/14 10:59:43;;;;;;;7.70;1.33;;;;;;;;;;4990326;28;20030;-81
2023/03/14 11:02:31;;;;;;;4.18;0.85;;;;;;;;;;5004821;28;20730;-84
2023/03/14 11:05:32;;;;;;;1.20;0.40;;;;;;;;;;5006238;28;20025;-83
2023/03/14 11:08:36;;;;;;;0.65;0.30;;;;;;;;;;5010615;28;20046;-85
2023/03/14 11:11:28;;;;;;;2.25;0.40;;;;;;;;;;5011112;28;20038;-82
2023/03/14 11:14:29;;;;;;;1.02;0.50;;;;;;;;;;4994469;28;20034;-83
2023/03/14 11:17:17;;;;;;;0.60;0.40;;;;;;;;;;5009931;28;20033;-83
2023/03/14 11:20:14;;;;;;;3.45;0.98;;;;;;;;;;5023356;28;20018;-82
2023/03/14 11:22:58;;;;;;;3.70;0.82;;;;;;;;;;5014733;28;20053;-85
2023/03/14 11:25:30;;;;;;;1.55;0.52;;;;;;;;;;4998640;28;20034;-84
2023/03/14 11:28:02;;;;;;;5.25;1.25;;;;;;;;;;5014209;28;20541;-83
2023/03/14 11:30:27;;;;;;;;;;;;;;;;;;5004184;28;20933;-82
2023/03/14 11:33:08;;;;;;;1.15;0.50;;;;;;;;;;5011653;28;19914;-83
2023/03/14 11:35:43;;;;;;;2.50;1.27;;;;;;;;;;5005605;28;20377;-82
2023/03/14 11:38:46;;;;;;;1.27;0.40;;;;;;;;;;5012340;28;20649;-81
2023/03/14 11:41:41;;;;;;;1.10;0.40;;;;;;;;;;5008496;28;20057;-83
2023/03/14 11:44:27;;;;;;;0.68;0.20;;;;;;;;;;5007898;28;20080;-82
2023/03/14 11:47:02;;;;;;;2.83;0.60;;;;;;;;;;5006271;28;20033;-83
2023/03/14 11:49:47;;;;;;;2.17;0.45;;;;;;;;;;5010523;28;20205;-83
2023/03/14 11:52:43;;;;;;;2.55;0.40;;;;;;;;;;5006327;28;20030;-81
2023/03/14 11:55:27;;;;;;;3.50;0.68;;;;;;;;;;5010189;28;20040;-81
2023/03/14 11:58:03;;;;;;;10.13;0.90;;;;;;;;;;5009822;28;20109;-82
2023/03/14 12:00:30;;;;;;;1.63;0.88;;;;;;;;;;5012376;28;20547;-82
2023/03/14 12:03:09;;;;;;;1.13;0.50;;;;;;;;;;5009365;28;20030;-83
2023/03/14 12:05:53;;;;;;;2.20;0.70;;;;;;;;;;5008054;28;20029;-82
2023/03/14 12:08:30;;;;;;;7.55;0.80;;;;;;;;;;5007292;28;20025;-80
2023/03/14 12:11:02;;;;;;;2.50;0.60;;;;;;;;;;5010425;28;20081;-83
2023/03/14 12:13:33;;;;;;;3.22;0.65;;;;;;;;;;5017109;28;20041;-81
2023/03/14 12:16:04;;;;;;;3.05;0.70;;;;;;;;;;5012860;28;20036;-84
2023/03/14 12:18:39;;;;;;;2.25;0.80;;;;;;;;;;5015994;28;20331;-87
2023/03/14 12:21:09;;;;;;;5.60;1.10;;;;;;;;;;5016990;28;20042;-85
2023/03/14 12:23:55;;;;;;;0.65;0.38;;;;;;;;;;5017388;28;20038;-87
2023/03/14 12:26:23;;;;;;;0.75;0.50;;;;;;;;;;5016447;28;20145;-86
2023/03/14 12:28:59;;;;;;;3.28;0.70;;;;;;;;;;5017735;28;20736;-84
2023/03/14 12:31:31;;;;;;;2.13;0.80;;;;;;;;;;5014468;28;20029;-83
2023/03/14 12:34:31;;;;;;;1.77;0.60;;;;;;;;;;5017458;28;20029;-86
2023/03/14 12:37:10;;;;;;;4.00;0.65;;;;;;;;;;5014675;28;20064;-84
2023/03/14 12:39:36;;;;;;;3.90;1.00;;;;;;;;;;5013265;28;20059;-88
2023/03/14 12:42:32;;;;;;;1.27;0.43;;;;;;;;;;5010465;28;20137;-87
2023/03/14 12:45:26;;;;;;;3.42;0.70;;;;;;;;;;5012711;28;20628;-83
2023/03/14 12:47:56;;;;;;;3.00;0.65;;;;;;;;;;5012843;28;20056;-84
2023/03/14 12:50:32;;;;;;;1.05;0.40;;;;;;;;;;5019265;28;20034;-83
2023/03/14 12:53:24;;;;;;;0.60;0.50;;;;;;;;;;5016934;28;20048;-84
2023/03/14 12:56:21;;;;;;;13.30;3.85;;;;;;;;;;5013504;28;20067;-86
2023/03/14 12:59:11;;;;;;;1.52;0.70;;;;;;;;;;5016636;28;20042;-87
2023/03/14 13:01:50;;;;;;;2.83;0.60;;;;;;;;;;5015166;28;20108;-85
2023/03/14 13:04:16;;;;;;;1.70;0.57;;;;;;;;;;5016276;28;20037;-85
2023/03/14 13:06:59;;;;;;;5.38;0.65;;;;;;;;;;5012928;28;20034;-84
2023/03/14 13:09:28;;;;;;;1.60;0.52;;;;;;;;;;5016334;28;20092;-85
2023/03/14 13:12:00;;;;;;;2.10;0.60;;;;;;;;;;5017711;28;20017;-83
2023/03/14 13:14:28;;;;;;;14.88;1.73;;;;;;;;;;5019222;28;20664;-86
2023/03/14 13:16:54;;;;;;;7.30;1.13;;;;;;;;;;5014700;28;20098;-84
2023/03/14 13:19:31;;;;;;;1.95;0.93;;;;;;;;;;5015774;28;20049;-85
2023/03/14 13:22:04;;;;;;;1.38;0.63;;;;;;;;;;5014496;28;20018;-84
2023/03/14 13:24:34;;;;;;;4.03;0.63;;;;;;;;;;4999515;28;20034;-85
2023/03/14 13:27:01;;;;;;;2.05;0.70;;;;;;;;;;5012784;28;20398;-85
2023/03/14 13:29:32;;;;;;;3.53;0.82;;;;;;;;;;5015496;28;20018;-82
2023/03/14 13:32:17;;;;;;;1.65;0.65;;;;;;;;;;5013278;28;20044;-84
2023/03/14 13:34:42;;;;;;;4.18;0.50;;;;;;;;;;5017649;28;20331;-84
2023/03/14 13:37:22;;;;;;;2.03;0.85;;;;;;;;;;5015534;28;20046;-83
2023/03/14 13:39:57;;;;;;;1.15;0.43;;;;;;;;;;5014073;28;20037;-83
2023/03/14 13:42:28;;;;;;;4.55;0.80;;;;;;;;;;5012151;28;20499;-84
2023/03/14 13:44:56;;;;;;;9.30;0.98;;;;;;;;;;5011394;28;20528;-84
2023/03/14 13:47:25;;;;;;;5.95;1.00;;;;;;;;;;5013521;28;20400;-84
2023/03/14 13:49:52;;;;;;;4.15;1.00;;;;;;;;;;5011091;28;20040;-85
2023/03/14 13:52:35;;;;;;;6.53;1.13;;;;;;;;;;5014400;28;20057;-86
2023/03/14 13:55:03;;;;;;;3.53;0.95;;;;;;;;;;5011068;28;20274;-83
2023/03/14 13:57:54;;;;;;;3.13;0.75;;;;;;;;;;5012265;28;20033;-83
2023/03/14 14:00:29;;;;;;;1.85;0.70;;;;;;;;;;5012953;28;20436;-83
2023/03/14 14:02:59;;;;;;;8.73;2.67;;;;;;;;;;5015870;28;20045;-87
2023/03/14 14:05:31;;;;;;;3.70;1.05;;;;;;;;;;5017492;28;20034;-82
2023/03/14 14:07:57;;;;;;;0.68;0.60;;;;;;;;;;5011689;28;20049;-84
2023/03/14 14:10:23;;;;;;;4.95;0.93;;;;;;;;;;5015943;28;20022;-83
2023/03/14 14:12:59;;;;;;;7.32;1.00;;;;;;;;;;5014856;28;20068;-83
2023/03/14 14:15:31;;;;;;;4.18;0.70;;;;;;;;;;5011845;28;20021;-81
2023/03/14 14:18:09;;;;;;;1.80;1.08;;;;;;;;;;5014718;28;20093;-84
2023/03/14 14:20:39;;;;;;;2.33;1.20;;;;;;;;;;5012765;28;20470;-82
2023/03/14 14:23:10;;;;;;;3.80;1.00;;;;;;;;;;5015171;28;20022;-86
2023/03/14 14:25:37;;;;;;;4.28;1.25;;;;;;;;;;5008433;28;20350;-85
2023/03/14 14:28:36;;;;;;;6.15;1.38;;;;;;;;;;5012035;28;20079;-85
2023/03/14 14:31:24;;;;;;;2.28;1.38;;;;;;;;;;5011591;28;20080;-84
2023/03/14 14:34:03;;;;;;;2.85;1.30;;;;;;;;;;5009009;28;20032;-83
2023/03/14 14:36:38;;;;;;;5.15;1.35;;;;;;;;;;5009306;28;20038;-84
2023/03/14 14:39:18;;;;;;;1.95;0.70;;;;;;;;;;5006254;28;20041;-83
2023/03/14 14:41:51;;;;;;;5.90;1.27;;;;;;;;;;5014331;28;20045;-82
2023/03/14 14:44:27;;;;;;;1.05;0.70;;;;;;;;;;5010222;28;20085;-84
2023/03/14 14:46:55;;;;;;;1.33;0.68;;;;;;;;;;5009055;28;20045;-85
2023/03/14 14:49:27;;;;;;;2.67;0.70;;;;;;;;;;5012877;28;20148;-85
2023/03/14 14:52:06;;;;;;;1.77;0.60;;;;;;;;;;5012612;28;20066;-83
2023/03/14 14:54:58;;;;;;;3.55;0.85;;;;;;;;;;5010832;28;20120;-82
2023/03/14 14:57:35;;;;;;;5.70;1.60;;;;;;;;;;5011281;28;20068;-83
2023/03/14 15:00:11;;;;;;;2.47;1.02;;;;;;;;;;4995110;28;20033;-84
2023/03/14 15:02:52;;;;;;;3.00;0.90;;;;;;;;;;5008023;28;20113;-83